Time;durP1;ratioP1;P1;durP2;ratioP2;P2;SDS_P1;SDS_P2;PMS_P1;PMS_P2;Temp;Humidity;BMP_temperature;BMP_pressure;BME280_temperature;BME280_humidity;BME280_pressure;Samples;Min_cycle;Max_cycle;Signal;HPM_P1;HPM_P2
2021/05/11 00:01:26;;;;;;;6.60;5.53;;;15.60;99.90;;;;;;5072289;28;20213;-66
2021/05/11 00:03:53;;;;;;;6.23;5.73;;;15.50;99.90;;;;;;5072758;28;20566;-65
2021/05/11 00:06:19;;;;;;;5.97;5.47;;;15.50;99.90;;;;;;5072716;28;20202;-65
2021/05/11 00:08:46;;;;;;;6.70;6.10;;;15.50;99.90;;;;;;5072738;28;20710;-65
2021/05/11 00:11:12;;;;;;;7.40;6.70;;;15.60;99.90;;;;;;5072397;28;20208;-65
2021/05/11 00:13:38;;;;;;;6.47;5.97;;;15.60;99.90;;;;;;5071906;28;20228;-65
2021/05/11 00:16:05;;;;;;;7.40;6.70;;;15.60;99.90;;;;;;5072034;28;20205;-65
2021/05/11 00:18:33;;;;;;;7.37;6.47;;;15.60;99.90;;;;;;5071941;28;20228;-65
2021/05/11 00:21:00;;;;;;;6.93;6.33;;;15.60;99.90;;;;;;5072043;28;20664;-65
2021/05/11 00:23:26;;;;;;;7.23;6.63;;;15.60;99.90;;;;;;5072018;28;20216;-65
2021/05/11 00:25:52;;;;;;;7.30;6.60;;;15.60;99.90;;;;;;5072019;28;20201;-65
2021/05/11 00:28:18;;;;;;;7.40;6.80;;;15.60;99.90;;;;;;5071922;28;20290;-64
2021/05/11 00:30:45;;;;;;;7.87;7.17;;;15.60;99.90;;;;;;5072389;28;20201;-65
2021/05/11 00:33:11;;;;;;;7.87;7.17;;;15.60;99.90;;;;;;5071833;28;20212;-65
2021/05/11 00:35:37;;;;;;;7.60;6.90;;;15.60;99.90;;;;;;5071567;28;20558;-64
2021/05/11 00:38:04;;;;;;;7.63;6.93;;;15.60;99.90;;;;;;5071386;28;20731;-64
2021/05/11 00:40:30;;;;;;;7.73;7.03;;;15.60;99.90;;;;;;5071396;28;20233;-64
2021/05/11 00:42:57;;;;;;;7.90;7.20;;;15.60;99.90;;;;;;5071389;28;20209;-65
2021/05/11 00:45:23;;;;;;;8.03;7.33;;;15.60;99.90;;;;;;5071455;28;20231;-64
2021/05/11 00:47:49;;;;;;;8.13;7.43;;;15.60;99.90;;;;;;5071258;28;20712;-64
2021/05/11 00:50:15;;;;;;;7.57;6.90;;;15.60;99.90;;;;;;5071435;28;20279;-64
2021/05/11 00:52:42;;;;;;;7.30;6.60;;;15.50;99.90;;;;;;5071795;28;20647;-64
2021/05/11 00:55:11;;;;;;;7.37;6.67;;;15.50;99.90;;;;;;5071102;28;20251;-65
2021/05/11 00:57:37;;;;;;;8.23;7.33;;;15.50;99.90;;;;;;5071059;28;20743;-64
2021/05/11 01:00:06;;;;;;;8.17;7.10;;;15.50;99.90;;;;;;5071385;28;20660;-64
2021/05/11 01:02:33;;;;;;;8.60;7.80;;;15.50;99.90;;;;;;5071365;28;20212;-64
2021/05/11 01:04:59;;;;;;;8.33;7.53;;;15.40;99.90;;;;;;5071215;28;20215;-65
2021/05/11 01:07:26;;;;;;;8.40;7.60;;;15.50;99.90;;;;;;5071197;28;20228;-64
2021/05/11 01:09:52;;;;;;;8.67;7.87;;;15.50;99.90;;;;;;5071273;28;20212;-65
2021/05/11 01:12:21;;;;;;;9.67;8.87;;;15.50;99.90;;;;;;5072140;28;20254;-64
2021/05/11 01:14:47;;;;;;;9.80;8.77;;;15.50;99.90;;;;;;5071627;28;20664;-63
2021/05/11 01:17:17;;;;;;;9.77;8.87;;;15.50;99.90;;;;;;5071441;28;20298;-65
2021/05/11 01:19:47;;;;;;;9.83;8.80;;;15.40;99.90;;;;;;5071138;28;20221;-65
2021/05/11 01:22:33;;;;;;;10.20;9.30;;;15.40;99.90;;;;;;5071575;28;20235;-64
2021/05/11 01:25:02;;;;;;;10.67;9.63;;;15.40;99.90;;;;;;5071466;28;20212;-64
2021/05/11 01:30:39;;;;;;;10.73;9.63;;;15.40;99.90;;;;;;5069011;28;20624;-64
2021/05/11 01:43:50;;;;;;;11.27;10.17;;;15.40;99.90;;;;;;5071276;28;20282;-65
2021/05/11 01:44:32;;;;;;;10.50;9.50;;;15.50;99.90;;;;;;5072867;28;20204;-64
2021/05/11 01:47:18;;;;;;;10.83;9.73;;;15.50;99.90;;;;;;5075238;28;20821;-64
2021/05/11 01:50:02;;;;;;;11.07;10.07;;;15.40;99.90;;;;;;5074725;28;20196;-65
2021/05/11 01:52:38;;;;;;;11.53;10.53;;;15.50;99.90;;;;;;5075017;28;20299;-65
2021/05/11 01:55:21;;;;;;;12.47;11.27;;;15.50;99.90;;;;;;5074867;28;20212;-64
2021/05/11 01:58:13;;;;;;;13.00;11.70;;;15.60;99.90;;;;;;5074570;28;20229;-64
2021/05/11 02:22:50;;;;;;;14.47;13.03;;;15.70;99.90;;;;;;5074389;28;20224;-64
2021/05/11 02:25:17;;;;;;;15.27;13.77;;;15.70;99.90;;;;;;5074271;28;20211;-63
2021/05/11 02:27:44;;;;;;;15.13;13.07;;;15.70;99.90;;;;;;5073952;28;20774;-64
2021/05/11 02:30:12;;;;;;;14.67;13.27;;;15.80;99.90;;;;;;5074731;28;20302;-64
2021/05/11 02:32:40;;;;;;;14.83;13.23;;;15.70;99.90;;;;;;5074417;28;20208;-64
2021/05/11 02:35:07;;;;;;;14.00;12.70;;;15.70;99.90;;;;;;5074347;28;20205;-64
2021/05/11 02:37:34;;;;;;;14.73;13.23;;;15.80;99.90;;;;;;5074395;28;20236;-64
2021/05/11 02:40:00;;;;;;;14.93;13.43;;;15.70;99.90;;;;;;5074819;28;20225;-64
2021/05/11 02:42:27;;;;;;;16.30;14.60;;;15.70;99.90;;;;;;5075382;28;20219;-63
2021/05/11 02:44:56;;;;;;;17.33;15.57;;;15.70;99.90;;;;;;5074882;28;20423;-63
2021/05/11 02:47:22;;;;;;;17.00;15.00;;;15.70;99.90;;;;;;5075528;28;20298;-64
2021/05/11 02:49:50;;;;;;;16.53;14.63;;;15.70;99.90;;;;;;5076597;28;20201;-63
2021/05/11 02:52:16;;;;;;;17.10;15.27;;;15.70;99.90;;;;;;5074974;28;20396;-63
2021/05/11 02:54:43;;;;;;;17.87;15.40;;;15.70;99.90;;;;;;5074322;28;20209;-64
2021/05/11 02:57:09;;;;;;;16.80;14.87;;;15.60;99.90;;;;;;5074143;28;20229;-64
2021/05/11 02:59:36;;;;;;;18.17;15.20;;;15.50;99.90;;;;;;5073320;28;20700;-64
2021/05/11 03:02:04;;;;;;;20.20;15.60;;;15.60;99.90;;;;;;5073566;28;20239;-64
2021/05/11 03:04:30;;;;;;;17.93;15.47;;;15.60;99.90;;;;;;5073406;28;20232;-64
2021/05/11 03:06:57;;;;;;;19.23;16.93;;;15.60;99.90;;;;;;5073294;28;20694;-63
2021/05/11 03:09:24;;;;;;;17.57;15.70;;;15.60;99.90;;;;;;5073431;28;20208;-64
2021/05/11 03:11:52;;;;;;;17.73;15.37;;;15.60;99.90;;;;;;5073506;28;20294;-64
2021/05/11 03:14:18;;;;;;;18.07;15.23;;;15.60;99.90;;;;;;5073901;28;20201;-64
2021/05/11 03:16:45;;;;;;;19.37;15.17;;;15.60;99.90;;;;;;5073536;28;20201;-64
2021/05/11 03:19:12;;;;;;;18.40;14.80;;;15.60;99.90;;;;;;5072962;28;20279;-64
2021/05/11 03:21:38;;;;;;;18.03;14.93;;;15.60;99.90;;;;;;5073321;28;20209;-64
2021/05/11 03:24:06;;;;;;;16.93;14.47;;;15.70;99.90;;;;;;5073175;28;20201;-64
2021/05/11 03:26:33;;;;;;;17.00;14.53;;;15.70;99.90;;;;;;5073267;28;20201;-63
2021/05/11 03:28:59;;;;;;;17.03;14.07;;;15.60;99.90;;;;;;5095262;22;20551;-59
2021/05/11 03:31:25;;;;;;;18.90;15.03;;;15.60;99.90;;;;;;5072651;28;20205;-60
2021/05/11 03:33:51;;;;;;;17.20;13.60;;;15.60;99.90;;;;;;5072503;28;20205;-61
2021/05/11 03:36:18;;;;;;;17.80;14.80;;;15.60;99.90;;;;;;5072488;28;20212;-62
2021/05/11 03:38:47;;;;;;;15.93;14.00;;;15.50;99.90;;;;;;5072504;28;20227;-59
2021/05/11 03:41:14;;;;;;;18.53;15.07;;;15.60;99.90;;;;;;5072503;28;20209;-60
2021/05/11 03:43:49;;;;;;;18.30;15.17;;;15.60;99.90;;;;;;5072281;28;20204;-59
2021/05/11 03:46:15;;;;;;;17.13;14.47;;;15.60;99.90;;;;;;5072170;28;20204;-58
2021/05/11 03:48:41;;;;;;;17.67;14.43;;;15.60;99.90;;;;;;5072057;28;20225;-60
2021/05/11 03:51:08;;;;;;;16.73;14.33;;;15.60;99.90;;;;;;5072558;28;20201;-59
2021/05/11 03:53:35;;;;;;;16.80;13.67;;;15.60;99.90;;;;;;5072758;28;20204;-62
2021/05/11 03:56:02;;;;;;;18.10;13.83;;;15.70;99.90;;;;;;5072678;28;20209;-62
2021/05/11 03:58:28;;;;;;;17.53;13.17;;;15.70;99.90;;;;;;5072877;28;20236;-62
2021/05/11 04:00:55;;;;;;;15.50;12.60;;;15.70;99.90;;;;;;5072958;28;20225;-62
2021/05/11 04:03:21;;;;;;;16.53;13.43;;;15.80;99.90;;;;;;5072262;28;20212;-61
2021/05/11 04:05:49;;;;;;;18.13;13.90;;;15.70;99.90;;;;;;5072148;28;20436;-62
2021/05/11 04:08:22;;;;;;;16.80;13.77;;;15.80;99.90;;;;;;5071840;28;20311;-62
2021/05/11 04:10:56;;;;;;;18.33;14.63;;;15.70;99.90;;;;;;5072426;28;20246;-62
2021/05/11 04:13:52;;;;;;;16.83;13.53;;;15.70;99.90;;;;;;5071601;28;20254;-61
2021/05/11 04:16:22;;;;;;;16.17;13.70;;;15.70;99.90;;;;;;5072041;28;20212;-61
2021/05/11 04:18:49;;;;;;;22.17;16.07;;;15.70;99.90;;;;;;5071695;28;20220;-61
2021/05/11 04:21:15;;;;;;;17.67;14.30;;;15.80;99.90;;;;;;5071711;28;20231;-62
2021/05/11 04:23:42;;;;;;;17.50;14.17;;;15.80;99.90;;;;;;5071393;28;20208;-62
2021/05/11 04:26:10;;;;;;;18.17;14.70;;;15.90;99.90;;;;;;5071500;28;20204;-62
2021/05/11 04:28:36;;;;;;;18.10;14.43;;;15.90;99.90;;;;;;5071408;28;20685;-61
2021/05/11 04:31:02;;;;;;;19.00;15.83;;;15.90;99.90;;;;;;5071831;28;20201;-61
2021/05/11 04:33:29;;;;;;;19.23;15.50;;;15.90;99.90;;;;;;5071844;28;20208;-61
2021/05/11 04:35:55;;;;;;;19.50;15.47;;;15.90;99.90;;;;;;5071764;28;20205;-62
2021/05/11 04:38:22;;;;;;;17.60;13.87;;;15.80;99.90;;;;;;5071488;28;20224;-62
2021/05/11 04:40:48;;;;;;;18.00;14.23;;;15.70;99.90;;;;;;5071341;28;20312;-62
2021/05/11 04:43:15;;;;;;;16.50;13.97;;;15.80;99.90;;;;;;5071259;28;20232;-62
2021/05/11 04:45:42;;;;;;;17.03;14.03;;;15.70;99.90;;;;;;5071117;28;20215;-62
2021/05/11 04:48:09;;;;;;;17.53;14.60;;;15.70;99.90;;;;;;5071360;28;20243;-62
2021/05/11 04:50:35;;;;;;;21.70;15.87;;;15.70;99.90;;;;;;5071114;28;20208;-62
2021/05/11 04:53:01;;;;;;;19.97;16.53;;;15.80;99.90;;;;;;5070977;28;20213;-62
2021/05/11 04:55:28;;;;;;;20.80;16.07;;;15.90;99.90;;;;;;5071152;28;20209;-62
2021/05/11 04:57:54;;;;;;;21.37;16.70;;;16.00;99.90;;;;;;5071297;28;20221;-61
2021/05/11 05:00:22;;;;;;;23.60;17.33;;;16.10;99.90;;;;;;5070974;28;20605;-61
2021/05/11 05:02:48;;;;;;;21.37;17.60;;;16.20;99.90;;;;;;5070878;28;20208;-61
2021/05/11 05:05:15;;;;;;;20.17;16.47;;;16.20;99.90;;;;;;5070862;28;20678;-62
2021/05/11 05:07:42;;;;;;;33.00;22.70;;;16.30;99.90;;;;;;5070726;28;20224;-59
2021/05/11 05:10:11;;;;;;;21.00;16.57;;;16.30;99.90;;;;;;5071073;28;20579;-59
2021/05/11 05:12:37;;;;;;;19.30;15.93;;;16.40;99.90;;;;;;5070883;28;20296;-59
2021/05/11 05:15:05;;;;;;;20.03;16.00;;;16.40;99.90;;;;;;5070851;28;20261;-59
2021/05/11 05:17:32;;;;;;;20.00;15.73;;;16.50;99.90;;;;;;5070388;28;20236;-59
2021/05/11 05:19:58;;;;;;;19.53;15.30;;;16.50;99.90;;;;;;5070536;28;20224;-59
2021/05/11 05:22:24;;;;;;;19.57;14.73;;;16.60;99.90;;;;;;5070752;28;20258;-59
2021/05/11 05:24:52;;;;;;;20.27;15.67;;;16.50;99.90;;;;;;5070915;28;20212;-59
2021/05/11 05:27:21;;;;;;;21.47;16.07;;;16.60;99.90;;;;;;5070883;28;20205;-59
2021/05/11 05:29:47;;;;;;;20.33;15.63;;;16.60;99.90;;;;;;5070787;28;20204;-59
2021/05/11 05:32:13;;;;;;;20.33;14.93;;;16.70;99.90;;;;;;5071041;28;20213;-59
2021/05/11 05:34:41;;;;;;;20.60;16.23;;;16.70;99.90;;;;;;5070900;28;20200;-59
2021/05/11 05:37:08;;;;;;;17.63;15.00;;;16.70;99.90;;;;;;5071126;28;20212;-59
2021/05/11 05:39:37;;;;;;;21.10;15.70;;;16.80;99.90;;;;;;5071124;28;20256;-59
2021/05/11 05:42:04;;;;;;;18.90;15.13;;;16.80;99.90;;;;;;5070642;28;20719;-60
2021/05/11 05:44:30;;;;;;;16.50;13.97;;;16.80;99.90;;;;;;5070672;28;20299;-58
2021/05/11 05:46:56;;;;;;;17.83;15.10;;;16.80;99.90;;;;;;5070772;28;20672;-58
2021/05/11 05:49:24;;;;;;;18.13;14.07;;;16.80;99.90;;;;;;5070272;28;20602;-58
2021/05/11 05:51:52;;;;;;;17.50;13.83;;;16.80;99.90;;;;;;5070625;28;20205;-58
2021/05/11 05:54:18;;;;;;;18.77;14.67;;;16.80;99.90;;;;;;5070308;28;20614;-59
2021/05/11 05:56:44;;;;;;;16.57;13.53;;;16.70;99.90;;;;;;5070597;28;20246;-59
2021/05/11 05:59:10;;;;;;;19.47;14.37;;;16.70;99.90;;;;;;5070066;28;20232;-58
2021/05/11 06:01:36;;;;;;;16.87;14.17;;;16.80;99.90;;;;;;5070261;28;20258;-59
2021/05/11 06:04:09;;;;;;;17.17;13.57;;;16.90;99.90;;;;;;5070054;28;20318;-58
2021/05/11 06:06:36;;;;;;;16.97;12.90;;;16.90;99.90;;;;;;5070483;28;20213;-58
2021/05/11 06:09:10;;;;;;;16.80;12.97;;;17.00;99.90;;;;;;5070269;28;20600;-59
2021/05/11 06:11:41;;;;;;;16.90;12.83;;;16.90;99.90;;;;;;5070861;28;20216;-58
2021/05/11 06:14:13;;;;;;;16.33;12.40;;;17.00;99.90;;;;;;5070036;28;20204;-59
2021/05/11 06:19:24;;;;;;;17.00;12.30;;;17.00;99.90;;;;;;5070158;28;20228;-59
2021/05/11 06:21:50;;;;;;;14.80;12.53;;;17.00;99.90;;;;;;5070241;28;20212;-59
2021/05/11 06:24:17;;;;;;;14.30;12.40;;;17.00;99.90;;;;;;5070137;28;20212;-59
2021/05/11 06:26:45;;;;;;;14.73;12.07;;;17.00;99.90;;;;;;5070179;28;20681;-59
2021/05/11 06:29:11;;;;;;;16.27;12.23;;;17.10;99.90;;;;;;5070239;28;20243;-58
2021/05/11 06:31:38;;;;;;;17.50;14.13;;;17.10;99.90;;;;;;5074145;28;20212;-60
2021/05/11 06:34:07;;;;;;;19.10;14.30;;;17.10;99.90;;;;;;5073608;28;20204;-63
2021/05/11 06:36:33;;;;;;;16.27;13.30;;;17.10;99.90;;;;;;5073796;28;20213;-59
2021/05/11 06:39:00;;;;;;;15.43;12.67;;;17.10;99.90;;;;;;5073621;28;20282;-59
2021/05/11 06:41:28;;;;;;;15.80;13.10;;;17.20;99.90;;;;;;5073797;28;20216;-59
2021/05/11 06:43:57;;;;;;;16.63;13.27;;;17.30;99.90;;;;;;5073939;28;20209;-59
2021/05/11 06:47:13;;;;;;;14.93;11.77;;;17.30;99.90;;;;;;5073891;28;20251;-59
2021/05/11 06:49:45;;;;;;;17.20;13.53;;;17.30;99.90;;;;;;5073362;28;20207;-62
2021/05/11 06:54:56;;;;;;;14.57;12.30;;;17.30;99.90;;;;;;5073876;28;20231;-59
2021/05/11 06:57:23;;;;;;;14.97;12.20;;;17.40;99.90;;;;;;5073673;28;20208;-57
2021/05/11 06:59:49;;;;;;;14.90;12.20;;;17.50;99.90;;;;;;5073650;28;20236;-60
2021/05/11 07:02:15;;;;;;;15.33;12.90;;;17.50;99.90;;;;;;5073290;28;20246;-61
2021/05/11 07:04:41;;;;;;;13.27;11.30;;;17.60;99.90;;;;;;5073356;28;20224;-60
2021/05/11 07:07:10;;;;;;;13.90;10.97;;;17.60;99.90;;;;;;5073402;28;20299;-59
2021/05/11 07:09:50;;;;;;;13.87;11.40;;;17.60;99.90;;;;;;5073113;28;20228;-58
2021/05/11 07:15:04;;;;;;;13.20;11.20;;;17.50;99.90;;;;;;5073202;28;20199;-61
2021/05/11 07:17:30;;;;;;;13.30;11.03;;;17.50;99.90;;;;;;5073193;28;20274;-59
2021/05/11 07:19:56;;;;;;;17.27;11.70;;;17.60;99.90;;;;;;5073022;28;20228;-59
2021/05/11 07:22:23;;;;;;;16.53;11.50;;;17.80;99.90;;;;;;5072930;28;20205;-58
2021/05/11 07:24:52;;;;;;;13.37;11.97;;;17.90;99.90;;;;;;5072738;28;20583;-60
2021/05/11 07:27:49;;;;;;;13.33;10.83;;;17.90;99.90;;;;;;5072616;28;20224;-58
2021/05/11 07:30:25;;;;;;;14.37;11.00;;;18.00;99.90;;;;;;5072816;28;20209;-59
2021/05/11 07:32:51;;;;;;;13.07;11.13;;;18.00;99.90;;;;;;5072751;28;20292;-58
2021/05/11 07:35:18;;;;;;;11.70;10.50;;;18.00;99.90;;;;;;5072530;28;20209;-59
2021/05/11 07:37:44;;;;;;;13.47;9.80;;;18.10;99.90;;;;;;5072288;28;20229;-59
2021/05/11 07:40:11;;;;;;;10.77;9.27;;;18.10;99.90;;;;;;5072620;28;20225;-57
2021/05/11 07:42:37;;;;;;;52.13;34.90;;;18.20;99.90;;;;;;5071622;28;20209;-60
2021/05/11 07:45:07;;;;;;;11.70;10.30;;;18.20;99.90;;;;;;5072650;28;20213;-60
2021/05/11 07:47:39;;;;;;;11.07;9.60;;;18.30;99.90;;;;;;5072383;28;20311;-61
2021/05/11 07:50:33;;;;;;;12.53;10.00;;;18.30;99.90;;;;;;5073092;28;20196;-59
2021/05/11 08:04:24;;;;;;;11.83;9.63;;;18.50;99.90;;;;;;5073461;28;20203;-61
2021/05/11 08:15:08;;;;;;;13.13;9.60;;;19.00;99.90;;;;;;5071829;28;20680;-58
2021/05/11 08:17:37;;;;;;;11.20;10.00;;;18.90;99.90;;;;;;5071700;28;20724;-61
2021/05/11 08:20:31;;;;;;;10.55;9.43;;;19.00;99.90;;;;;;5071924;28;20228;-59
2021/05/11 08:23:18;;;;;;;11.30;9.20;;;19.10;99.90;;;;;;5071930;28;20200;-59
2021/05/11 08:28:28;;;;;;;9.90;8.50;;;19.10;99.90;;;;;;5071319;28;20260;-60
2021/05/11 08:30:54;;;;;;;9.23;8.30;;;19.00;99.90;;;;;;5071493;28;20197;-58
2021/05/11 08:33:21;;;;;;;8.87;7.97;;;19.20;99.90;;;;;;5071701;28;20208;-59
2021/05/11 08:35:50;;;;;;;9.40;7.75;;;19.30;99.90;;;;;;5071308;28;20255;-58
2021/05/11 08:38:16;;;;;;;8.48;7.55;;;19.20;99.90;;;;;;5070937;28;20716;-60
2021/05/11 08:40:42;;;;;;;10.18;7.90;;;18.90;99.90;;;;;;5071070;28;20224;-60
2021/05/11 08:43:26;;;;;;;8.90;7.78;;;18.70;99.90;;;;;;5071706;28;20588;-58
2021/05/11 08:45:54;;;;;;;8.95;7.72;;;18.70;99.90;;;;;;5071492;28;20208;-58
2021/05/11 08:48:20;;;;;;;9.57;7.55;;;18.80;99.90;;;;;;5070914;28;20235;-59
2021/05/11 08:50:50;;;;;;;7.95;7.15;;;18.90;99.90;;;;;;5071022;28;20802;-59
2021/05/11 08:53:31;;;;;;;9.93;7.38;;;19.20;99.90;;;;;;5071101;28;20664;-57
2021/05/11 09:04:38;;;;;;;7.43;6.50;;;20.10;99.90;;;;;;5070868;28;20690;-59
2021/05/11 09:16:22;;;;;;;8.95;7.30;;;20.60;99.90;;;;;;5070656;28;20644;-58
2021/05/11 09:27:23;;;;;;;6.53;5.85;;;20.50;99.90;;;;;;5055852;28;20232;-58
2021/05/11 09:30:06;;;;;;;6.15;5.55;;;20.50;99.90;;;;;;5094027;22;20260;-67
2021/05/11 10:36:54;;;;;;;5.10;4.60;;;20.20;99.40;;;;;;5074593;28;20204;-64
2021/05/11 10:39:41;;;;;;;5.15;4.65;;;20.10;99.70;;;;;;5074591;28;20719;-61
2021/05/11 10:47:38;;;;;;;5.07;4.57;;;20.30;99.10;;;;;;5040313;28;20204;-61
2021/05/11 10:50:05;;;;;;;5.50;4.90;;;20.40;98.70;;;;;;5074352;28;20209;-62
2021/05/11 10:52:42;;;;;;;5.78;5.18;;;20.60;98.70;;;;;;5074092;28;20208;-64
2021/05/11 10:55:12;;;;;;;7.18;4.78;;;20.80;98.40;;;;;;5073876;28;20295;-61
2021/05/11 10:57:45;;;;;;;5.35;4.85;;;20.90;98.50;;;;;;5073892;28;20209;-62
2021/05/11 11:00:40;;;;;;;6.00;5.40;;;20.90;98.00;;;;;;5073446;28;20220;-63
2021/05/11 11:03:12;;;;;;;8.98;5.43;;;21.10;97.90;;;;;;5074534;28;20232;-60
2021/05/11 11:05:40;;;;;;;4.97;4.50;;;21.20;97.40;;;;;;5074035;28;20232;-64
2021/05/11 11:08:27;;;;;;;6.07;4.90;;;21.40;97.10;;;;;;5074046;28;20777;-62
2021/05/11 11:11:02;;;;;;;6.00;4.55;;;21.40;96.70;;;;;;5073393;28;20212;-61
2021/05/11 11:13:28;;;;;;;4.55;4.15;;;21.40;96.70;;;;;;5073228;28;20219;-60
2021/05/11 11:15:59;;;;;;;7.55;6.13;;;21.30;96.60;;;;;;5073348;28;20296;-61
2021/05/11 11:18:25;;;;;;;6.90;5.85;;;21.10;96.80;;;;;;5072702;28;20811;-61
2021/05/11 11:21:07;;;;;;;4.82;4.32;;;21.10;97.10;;;;;;5073343;28;20224;-62
2021/05/11 11:23:42;;;;;;;4.88;4.38;;;21.10;96.90;;;;;;5073184;28;20205;-62
2021/05/11 11:26:11;;;;;;;5.47;4.97;;;21.00;96.80;;;;;;5073119;28;20873;-62
2021/05/11 11:28:37;;;;;;;6.97;6.25;;;21.10;97.00;;;;;;5072609;28;20237;-63
2021/05/11 11:31:21;;;;;;;6.30;4.68;;;21.30;96.70;;;;;;5072789;28;20201;-64
2021/05/11 11:33:47;;;;;;;4.57;4.18;;;21.30;96.40;;;;;;5073045;28;20209;-63
2021/05/11 11:36:33;;;;;;;5.53;4.90;;;21.30;96.30;;;;;;5072939;28;20509;-63
2021/05/11 11:39:01;;;;;;;5.80;5.20;;;21.30;96.60;;;;;;5072779;28;20231;-61
2021/05/11 11:41:28;;;;;;;5.60;5.10;;;21.50;96.50;;;;;;5076496;28;20233;-61
2021/05/11 11:43:55;;;;;;;5.38;4.88;;;21.60;96.50;;;;;;5075515;28;20220;-62
2021/05/11 11:46:25;;;;;;;5.50;5.00;;;21.80;95.90;;;;;;5073907;28;20209;-61
2021/05/11 11:49:01;;;;;;;5.55;5.00;;;22.00;95.90;;;;;;5072490;28;20737;-60
2021/05/11 11:51:28;;;;;;;5.82;5.22;;;22.30;95.30;;;;;;5072213;28;20240;-60
2021/05/11 11:54:08;;;;;;;6.07;5.57;;;22.50;94.90;;;;;;5072068;28;20220;-62
2021/05/11 11:57:44;;;;;;;7.70;6.95;;;22.60;94.70;;;;;;5073387;28;20223;-61
2021/05/11 11:59:28;;;;;;;6.70;5.97;;;22.60;94.70;;;;;;5072208;28;20225;-60
2021/05/11 12:01:59;;;;;;;6.07;5.57;;;22.60;95.00;;;;;;5072680;28;20279;-62
2021/05/11 12:04:25;;;;;;;6.38;5.78;;;22.70;94.70;;;;;;5071653;28;20215;-60
2021/05/11 12:07:01;;;;;;;6.25;5.75;;;22.70;94.50;;;;;;5072012;28;20209;-60
2021/05/11 12:09:29;;;;;;;6.65;6.05;;;22.70;94.50;;;;;;5071839;28;20229;-60
2021/05/11 12:11:55;;;;;;;7.85;6.40;;;22.50;94.50;;;;;;5071905;28;20217;-62
2021/05/11 12:14:21;;;;;;;5.72;5.22;;;22.40;94.80;;;;;;5071588;28;20205;-61
2021/05/11 12:16:48;;;;;;;6.38;5.72;;;22.30;95.00;;;;;;5071564;28;20564;-61
2021/05/11 12:19:17;;;;;;;7.28;6.20;;;22.30;95.20;;;;;;5071309;28;20237;-64
2021/05/11 12:21:52;;;;;;;7.22;6.53;;;22.30;95.40;;;;;;5071644;28;20233;-63
2021/05/11 12:24:19;;;;;;;7.95;7.25;;;22.30;95.40;;;;;;5071555;28;20201;-63
2021/05/11 12:26:46;;;;;;;7.80;7.13;;;22.10;95.70;;;;;;5071448;28;20201;-62
2021/05/11 12:29:15;;;;;;;8.10;7.40;;;22.10;96.00;;;;;;5070776;28;20311;-63
2021/05/11 12:31:43;;;;;;;8.45;7.72;;;22.30;96.10;;;;;;5071509;28;20201;-61
2021/05/11 12:34:11;;;;;;;9.40;8.50;;;22.40;95.70;;;;;;5071361;28;20205;-61
2021/05/11 12:36:45;;;;;;;10.30;9.30;;;22.50;95.50;;;;;;5071355;28;20211;-61
2021/05/11 12:39:23;;;;;;;10.30;9.40;;;22.60;95.10;;;;;;5071143;28;20266;-60
2021/05/11 12:41:50;;;;;;;9.60;8.73;;;22.60;94.50;;;;;;5071025;28;20221;-61
2021/05/11 12:44:30;;;;;;;9.18;8.27;;;22.40;94.60;;;;;;5071034;28;20200;-64
2021/05/11 12:47:00;;;;;;;8.27;7.47;;;22.40;94.50;;;;;;5071308;28;20227;-61
2021/05/11 12:49:28;;;;;;;7.63;6.82;;;22.20;94.70;;;;;;5071265;28;20236;-61
2021/05/11 12:51:55;;;;;;;8.68;7.88;;;22.00;94.70;;;;;;5071358;28;20200;-60
2021/05/11 12:54:28;;;;;;;8.00;7.30;;;21.90;95.30;;;;;;5071318;28;20212;-61
2021/05/11 12:57:20;;;;;;;7.30;6.60;;;22.00;95.10;;;;;;5071439;28;20247;-62
2021/05/11 12:59:54;;;;;;;6.70;6.10;;;22.00;95.00;;;;;;5070794;28;20278;-60
2021/05/11 13:02:42;;;;;;;5.75;5.25;;;21.90;95.20;;;;;;5071476;28;20223;-64
2021/05/11 13:16:39;;;;;;;5.97;5.47;;;21.50;96.20;;;;;;5028588;28;20308;-61
2021/05/11 13:27:17;;;;;;;6.25;5.70;;;21.50;98.80;;;;;;5071134;28;20667;-62
2021/05/11 13:29:55;;;;;;;6.28;5.68;;;21.50;98.80;;;;;;5070603;28;20603;-64
2021/05/11 13:32:27;;;;;;;7.38;6.78;;;21.50;99.30;;;;;;5071065;28;20239;-61
2021/05/11 13:34:53;;;;;;;10.27;9.30;;;21.40;98.10;;;;;;5070698;28;20312;-61
2021/05/11 13:37:25;;;;;;;11.30;10.40;;;21.10;99.20;;;;;;5070891;28;20205;-61
2021/05/11 13:39:52;;;;;;;12.02;10.98;;;20.70;99.90;;;;;;5072298;28;20260;-64
2021/05/11 13:42:18;;;;;;;11.57;10.57;;;20.50;99.90;;;;;;5074813;28;20212;-63
2021/05/11 13:44:45;;;;;;;11.38;10.23;;;20.30;99.90;;;;;;5074909;28;20212;-62
2021/05/11 13:47:11;;;;;;;12.07;11.05;;;20.00;99.90;;;;;;5074836;28;20205;-62
2021/05/11 13:49:37;;;;;;;11.02;10.02;;;19.90;99.90;;;;;;5074709;28;20228;-62
2021/05/11 13:52:04;;;;;;;9.48;7.82;;;19.80;99.90;;;;;;5074759;28;20204;-62
2021/05/11 13:54:30;;;;;;;6.75;6.15;;;19.70;99.90;;;;;;5074414;28;20401;-63
2021/05/11 13:57:12;;;;;;;6.28;5.68;;;19.60;99.90;;;;;;5074509;28;20208;-61
2021/05/11 14:02:41;;;;;;;5.43;4.93;;;19.20;99.90;;;;;;5035215;28;20252;-63
2021/05/11 14:05:08;;;;;;;5.35;4.88;;;19.10;99.90;;;;;;5074086;28;20725;-61
2021/05/11 14:07:35;;;;;;;7.60;4.68;;;18.90;99.90;;;;;;5074526;28;20204;-61
2021/05/11 14:10:01;;;;;;;7.05;5.10;;;18.90;99.90;;;;;;5073925;28;20747;-60
2021/05/11 14:12:28;;;;;;;6.47;5.03;;;18.80;99.90;;;;;;5074004;28;20567;-63
2021/05/11 14:14:54;;;;;;;6.55;4.82;;;18.70;99.90;;;;;;5074293;28;20346;-60
2021/05/11 14:17:20;;;;;;;4.77;4.33;;;18.70;99.90;;;;;;5074538;28;20205;-60
2021/05/11 14:19:47;;;;;;;15.10;13.43;;;18.70;99.90;;;;;;5074566;28;20228;-60
2021/05/11 14:22:14;;;;;;;5.28;4.78;;;18.60;99.90;;;;;;5075067;28;20212;-61
2021/05/11 14:24:40;;;;;;;7.00;4.73;;;18.50;99.90;;;;;;5075130;28;20261;-64
2021/05/11 14:27:08;;;;;;;6.53;3.95;;;18.50;99.90;;;;;;5075296;28;20699;-63
2021/05/11 14:29:34;;;;;;;4.60;4.17;;;18.40;99.90;;;;;;5075377;28;20240;-63
2021/05/11 14:32:00;;;;;;;5.25;4.68;;;18.40;99.90;;;;;;5075544;28;20723;-61
2021/05/11 14:34:27;;;;;;;7.50;3.80;;;18.30;99.90;;;;;;5074608;28;20212;-64
2021/05/11 14:36:54;;;;;;;4.97;3.97;;;18.30;99.90;;;;;;5074428;28;20213;-64
2021/05/11 14:39:20;;;;;;;5.45;3.72;;;18.30;99.90;;;;;;5073687;28;20605;-61
2021/05/11 14:41:52;;;;;;;5.30;3.90;;;18.20;99.90;;;;;;5074034;28;20256;-63
2021/05/11 14:44:19;;;;;;;4.78;3.63;;;18.30;99.90;;;;;;5073855;28;20212;-64
2021/05/11 14:46:45;;;;;;;4.73;3.80;;;18.20;99.90;;;;;;5073723;28;20592;-63
2021/05/11 14:49:11;;;;;;;4.90;4.20;;;18.10;99.90;;;;;;5073917;28;20225;-64
2021/05/11 14:51:37;;;;;;;6.77;3.80;;;18.00;99.90;;;;;;5073197;28;20201;-62
2021/05/11 14:54:05;;;;;;;7.33;4.60;;;17.80;99.90;;;;;;5073456;28;20730;-61
2021/05/11 14:56:31;;;;;;;5.03;4.50;;;17.90;99.90;;;;;;5073525;28;20209;-65
2021/05/11 14:58:58;;;;;;;5.00;4.50;;;18.00;99.90;;;;;;5073393;28;20274;-62
2021/05/11 15:01:24;;;;;;;4.93;4.33;;;18.10;99.90;;;;;;5073673;28;20227;-61
2021/05/11 15:03:50;;;;;;;7.40;4.10;;;18.10;99.90;;;;;;5073265;28;20664;-61
2021/05/11 15:06:17;;;;;;;4.57;3.93;;;18.10;99.90;;;;;;5073400;28;20205;-61
2021/05/11 15:08:43;;;;;;;4.73;3.70;;;18.00;99.90;;;;;;5073473;28;20273;-61
2021/05/11 15:11:11;;;;;;;5.67;3.73;;;18.10;99.90;;;;;;5073563;28;20232;-62
2021/05/11 15:13:38;;;;;;;6.10;4.00;;;18.00;99.90;;;;;;5073495;28;20302;-61
2021/05/11 15:16:10;;;;;;;4.33;3.83;;;18.00;99.90;;;;;;5073425;28;20308;-61
2021/05/11 15:18:36;;;;;;;4.77;3.30;;;18.10;99.90;;;;;;5073153;28;20338;-60
2021/05/11 15:21:03;;;;;;;25.47;16.43;;;17.80;99.90;;;;;;5073158;28;20220;-62
2021/05/11 15:23:29;;;;;;;7.03;5.60;;;17.80;99.90;;;;;;5073064;28;20209;-61
2021/05/11 15:25:56;;;;;;;5.13;3.87;;;17.80;99.90;;;;;;5073005;28;20201;-62
2021/05/11 15:28:23;;;;;;;3.00;2.70;;;17.70;99.90;;;;;;5086684;22;20228;-57
2021/05/11 15:30:49;;;;;;;3.40;3.10;;;17.70;99.90;;;;;;5073127;28;20691;-57
2021/05/11 15:33:15;;;;;;;4.37;3.30;;;17.60;99.90;;;;;;5073238;28;20258;-57
2021/05/11 15:35:41;;;;;;;3.73;2.80;;;17.50;99.90;;;;;;5072756;28;20205;-56
2021/05/11 15:38:09;;;;;;;5.67;3.43;;;17.40;99.90;;;;;;5072535;28;20676;-57
2021/05/11 15:40:37;;;;;;;3.70;3.07;;;17.30;99.90;;;;;;5072658;28;20607;-57
2021/05/11 15:43:04;;;;;;;4.53;2.97;;;17.30;99.90;;;;;;5072725;28;20208;-60
2021/05/11 15:45:32;;;;;;;6.80;3.47;;;17.30;99.90;;;;;;5072605;28;20296;-59
2021/05/11 15:48:01;;;;;;;3.53;3.23;;;17.30;99.90;;;;;;5072828;28;20579;-58
2021/05/11 15:50:29;;;;;;;4.40;3.20;;;17.30;99.90;;;;;;5072577;28;20208;-57
2021/05/11 15:52:59;;;;;;;5.07;3.20;;;17.20;99.90;;;;;;5072512;28;20204;-57